createdAt,value
2018-08-24T02:36:58.055Z,30.60
2018-08-24T02:42:53.081Z,33.80
2018-08-24T02:43:52.853Z,33.90
2018-08-24T02:44:52.878Z,28.50
2018-08-24T02:45:52.801Z,34.00
2018-08-24T02:46:52.787Z,34.00
2018-08-24T02:47:52.750Z,28.40
2018-08-24T02:48:52.734Z,26.30
2018-08-24T02:49:52.702Z,24.60
2018-08-24T02:50:52.679Z,27.90
2018-08-24T02:51:52.653Z,22.50
2018-08-24T02:52:52.640Z,19.30
2018-08-24T02:53:52.602Z,17.40
2018-08-24T02:54:52.578Z,17.90
2018-08-24T02:55:52.554Z,16.50
2018-08-24T02:56:52.536Z,18.20
2018-08-24T02:57:52.503Z,18.90
2018-08-24T02:58:52.479Z,15.70
2018-08-24T02:59:52.453Z,18.50
2018-08-24T03:00:52.429Z,20.30
2018-08-24T03:01:52.413Z,17.50
2018-08-24T03:25:33.668Z,4.90
2018-08-24T03:26:31.021Z,4.70
2018-08-24T03:27:30.990Z,6.90
2018-08-24T03:28:30.967Z,4.00
2018-08-24T03:29:30.939Z,6.20
2018-08-24T03:30:30.912Z,7.50
2018-08-24T03:31:30.898Z,5.10
2018-08-24T03:32:30.865Z,6.60
2018-08-24T03:33:30.641Z,4.40
2018-08-24T03:34:30.819Z,5.10
2018-08-24T03:35:30.590Z,6.90
2018-08-24T03:36:30.763Z,5.90
2018-08-24T03:37:30.740Z,6.60
2018-08-24T03:38:34.345Z,5.90
2018-08-24T03:39:30.485Z,6.30
2018-08-24T03:40:30.471Z,8.50
2018-08-24T03:41:30.436Z,7.10
2018-08-24T03:42:30.411Z,7.80
2018-08-24T03:43:30.388Z,6.90
2018-08-24T03:44:30.565Z,10.10
2018-08-24T03:45:30.338Z,11.20
2018-08-24T03:46:30.312Z,8.00
2018-08-24T03:47:30.290Z,8.40
2018-08-24T03:48:30.467Z,7.80
2018-08-24T03:49:30.440Z,11.30
2018-08-24T03:50:30.414Z,9.50
2018-08-24T03:51:30.389Z,8.40
2018-08-24T03:52:30.166Z,10.90
2018-08-24T03:53:30.140Z,9.30
2018-08-24T03:54:30.114Z,8.70
2018-08-24T03:55:30.094Z,7.60
2018-08-24T03:56:30.066Z,6.30
2018-08-24T03:57:30.040Z,7.80
2018-08-24T03:58:30.020Z,6.80
2018-08-24T03:59:29.990Z,7.60
2018-08-24T04:00:29.964Z,5.30
2018-08-24T04:01:29.945Z,8.20
2018-08-24T04:02:29.913Z,6.80
2018-08-24T04:03:30.096Z,8.20
2018-08-24T04:04:29.866Z,9.40
2018-08-24T04:05:29.842Z,7.80
2018-08-24T04:06:29.816Z,9.30
2018-08-24T04:07:29.790Z,7.20
2018-08-24T04:08:29.765Z,6.90
2018-08-24T04:09:29.950Z,8.70
2018-08-24T04:10:29.916Z,8.10
2018-08-24T04:11:29.899Z,8.70
2018-08-24T04:12:29.870Z,9.90
2018-08-24T04:13:29.641Z,9.00
2018-08-24T04:14:29.616Z,9.60
2018-08-24T04:15:29.591Z,11.10
2018-08-24T04:16:29.581Z,10.40
2018-08-24T04:17:29.547Z,11.70
2018-08-24T04:18:29.519Z,8.20
2018-08-24T04:19:29.552Z,8.20
2018-08-24T04:20:29.466Z,10.20
2018-08-24T04:21:29.646Z,7.10
2018-08-24T04:22:29.417Z,9.90
2018-08-24T04:23:29.394Z,5.40
2018-08-24T04:24:29.371Z,7.10
2018-08-24T04:25:29.356Z,9.60
2018-08-24T04:26:29.319Z,5.80
2018-08-24T04:27:29.297Z,9.00
2018-08-24T04:28:29.269Z,6.60
2018-08-24T04:29:29.244Z,8.10
2018-08-24T04:30:29.220Z,8.20
2018-08-24T04:31:29.396Z,9.00
2018-08-24T04:32:29.178Z,11.90
2018-08-24T04:33:29.146Z,9.30
2018-08-24T04:34:29.122Z,9.10
2018-08-24T04:35:29.097Z,9.60
2018-08-24T04:36:29.071Z,7.70
2018-08-24T04:37:29.045Z,7.30
2018-08-24T04:38:29.029Z,9.00
2018-08-24T04:39:28.999Z,6.80
2018-08-24T04:40:29.313Z,8.30
2018-08-24T04:41:28.948Z,8.30
2018-08-24T04:42:31.745Z,9.60
2018-08-24T04:43:28.901Z,9.00
2018-08-24T04:44:28.873Z,8.20
2018-08-24T04:45:28.861Z,10.30
2018-08-24T04:46:28.821Z,9.30
2018-08-24T04:47:28.799Z,11.20
2018-08-24T04:48:28.770Z,6.80
2018-08-24T04:49:28.746Z,9.00
2018-08-24T04:50:28.720Z,10.80
2018-08-24T04:51:28.743Z,10.90
2018-08-24T04:52:28.673Z,9.40
2018-08-24T04:53:28.647Z,8.10
2018-08-24T04:54:28.623Z,7.90
2018-08-24T04:55:28.598Z,8.20
2018-08-24T04:56:28.571Z,9.10
2018-08-24T04:57:28.546Z,8.50
2018-08-24T05:00:52.799Z,10.50
2018-08-24T05:01:52.774Z,9.00
2018-08-24T05:02:52.747Z,9.90
2018-08-24T05:03:52.721Z,7.20
2018-08-24T05:04:52.696Z,6.90
2018-08-24T05:05:52.677Z,10.50
2018-08-24T05:06:52.658Z,11.20
2018-08-24T05:07:52.622Z,8.60
2018-08-24T05:08:52.601Z,10.00
2018-08-24T05:09:52.575Z,9.70
2018-08-24T05:10:52.547Z,9.50
2018-08-24T05:11:52.521Z,8.90
2018-08-24T05:12:52.496Z,10.60
2018-08-24T05:13:52.472Z,7.00
2018-08-24T05:14:52.453Z,9.20
2018-08-24T05:15:52.624Z,11.10
2018-08-24T05:16:52.403Z,10.00
2018-08-24T05:20:52.297Z,11.60
2018-08-24T05:21:52.270Z,8.50
2018-08-24T05:24:52.534Z,8.20
2018-08-24T05:27:52.126Z,10.90
2018-08-24T05:28:52.304Z,10.60
2018-08-24T05:29:52.080Z,9.10
2018-08-24T05:30:52.050Z,10.20
2018-08-24T05:32:52.000Z,12.50
2018-08-24T05:34:51.953Z,10.20
2018-08-24T05:35:51.929Z,6.90
2018-08-24T05:37:52.084Z,10.80
2018-08-24T05:39:52.038Z,10.30
2018-08-24T05:40:53.015Z,10.10
2018-08-24T05:41:51.788Z,10.60
2018-08-24T05:44:51.711Z,10.40
2018-08-24T05:45:51.891Z,14.20
2018-08-24T05:47:51.646Z,15.70
2018-08-24T05:51:51.544Z,8.30
2018-08-24T06:13:49.551Z,14.20
2018-08-24T06:14:49.530Z,14.40
2018-08-24T06:15:49.562Z,14.40
2018-08-24T06:19:49.612Z,11.60
2018-08-24T10:14:21.451Z,20.30
2018-08-24T10:15:21.230Z,21.20
2018-08-24T10:16:21.200Z,20.80
2018-08-24T10:25:05.038Z,20.90
2018-08-24T10:26:04.812Z,22.30
2018-08-24T10:31:17.908Z,19.30
2018-08-24T10:32:17.887Z,18.10
2018-08-24T10:33:17.857Z,14.30
2018-08-24T11:31:12.244Z,7.90
2018-08-24T11:33:36.533Z,7.20
2018-08-24T11:34:36.515Z,7.00
2018-08-24T11:35:36.496Z,7.10
2018-08-24T11:36:36.279Z,5.90
2018-08-24T11:37:36.257Z,4.80
2018-08-24T11:38:36.240Z,5.40
2018-08-24T12:04:54.070Z,9.10
2018-08-24T12:05:54.057Z,7.90
2018-08-24T12:06:54.031Z,5.70
2018-08-24T12:07:54.093Z,6.90
2018-08-24T12:08:53.788Z,8.40
2018-08-24T12:09:53.975Z,9.30
2018-08-24T12:10:53.751Z,5.90
2018-08-24T12:11:53.938Z,9.10
2018-08-24T12:12:53.724Z,6.90
2018-08-24T12:13:53.713Z,9.60
2018-08-24T12:14:53.676Z,9.10
2018-08-24T12:15:53.861Z,4.90
2018-08-24T12:16:53.639Z,7.60
2018-08-24T12:17:53.822Z,9.40
2018-08-24T12:18:53.615Z,9.00
2018-08-24T12:19:53.789Z,9.10
2018-08-24T12:20:53.570Z,8.50
2018-08-24T12:21:53.551Z,4.60
2018-08-24T12:22:53.534Z,7.10
2018-08-24T12:23:53.519Z,6.80
2018-08-24T12:24:53.509Z,7.10
2018-08-24T12:25:53.687Z,5.50
2018-08-24T12:26:53.468Z,7.90
2018-08-24T12:27:53.672Z,6.60
2018-08-24T12:28:53.436Z,6.20
2018-08-24T12:29:53.416Z,7.20
2018-08-24T12:30:53.427Z,6.90
2018-08-24T12:31:53.390Z,6.50
2018-08-24T12:32:53.571Z,4.20
2018-08-24T12:33:53.353Z,7.50
2018-08-24T12:34:53.381Z,7.60
2018-08-24T12:51:23.602Z,10.50
2018-08-24T12:52:20.761Z,7.50
2018-08-24T12:53:23.377Z,6.60
2018-08-24T12:54:20.928Z,7.30
2018-08-24T12:55:20.917Z,7.50
2018-08-24T12:56:20.699Z,7.60
2018-08-24T12:57:20.676Z,7.70
2018-08-24T12:58:20.864Z,7.00
2018-08-24T12:59:20.854Z,5.40
2018-08-24T13:00:20.832Z,5.80
2018-08-24T13:01:20.817Z,6.70
2018-08-24T13:02:20.597Z,8.10
2018-08-24T13:03:20.582Z,9.70
2018-08-24T13:04:20.563Z,9.20
2018-08-24T13:05:20.550Z,8.20
2018-08-24T13:06:20.535Z,5.00
2018-08-24T13:07:20.517Z,5.50
2018-08-24T13:08:20.508Z,6.10
2018-08-24T13:09:20.491Z,4.20
2018-08-24T13:10:20.473Z,6.30
2018-08-24T13:11:20.456Z,7.50
2018-08-24T13:12:20.440Z,5.70
2018-08-24T13:13:20.426Z,7.30
2018-08-24T13:14:20.406Z,8.00
2018-08-24T13:15:20.476Z,7.30
2018-08-24T13:16:20.578Z,5.80
2018-08-24T13:18:03.794Z,7.50
2018-08-24T13:19:03.575Z,11.50
2018-08-24T13:20:03.559Z,10.20
2018-08-24T13:21:03.540Z,8.90
2018-08-24T13:22:03.726Z,9.50
2018-08-24T13:23:03.706Z,6.60
2018-08-24T13:24:03.690Z,14.50
2018-08-24T13:25:45.830Z,14.30
2018-08-24T13:26:45.611Z,16.60
2018-08-24T13:27:45.596Z,12.10
2018-08-24T13:28:45.774Z,7.40
2018-08-24T13:29:45.757Z,19.70
2018-08-24T13:30:45.740Z,9.70
2018-08-24T13:31:45.515Z,13.30
2018-08-24T13:32:45.704Z,9.80
2018-08-24T13:33:45.681Z,11.80
2018-08-24T13:34:45.663Z,12.50
2018-08-24T13:35:45.648Z,12.60
2018-08-24T13:36:45.619Z,11.60
2018-08-24T13:37:45.599Z,8.20
2018-08-24T13:38:45.580Z,8.10
2018-08-24T13:39:45.558Z,12.20
2018-08-24T13:40:45.538Z,9.30
2018-08-24T13:50:11.361Z,3.80
2018-08-24T14:12:15.927Z,6.10
2018-08-24T14:13:15.935Z,5.50
2018-08-24T14:14:15.884Z,8.00
2018-08-24T14:15:15.862Z,6.20
2018-08-24T14:16:57.998Z,7.80
2018-08-24T14:17:57.978Z,9.30
2018-08-24T14:18:57.757Z,8.50
2018-08-24T14:19:57.734Z,6.60
2018-08-24T14:20:57.829Z,7.60
2018-08-24T14:21:57.690Z,9.00
2018-08-24T14:22:57.675Z,10.80
2018-08-24T14:23:57.854Z,7.80
2018-08-24T14:24:57.634Z,7.80
2018-08-24T14:25:57.614Z,10.00
2018-08-24T14:26:57.594Z,9.50
2018-08-24T14:27:57.567Z,12.90
2018-08-24T14:28:57.547Z,10.80
2018-08-24T14:29:57.525Z,13.40
2018-08-24T14:30:57.507Z,12.80
2018-08-24T14:31:57.484Z,10.80
2018-08-24T14:32:57.464Z,8.80
2018-08-24T14:33:57.442Z,9.00
2018-08-24T14:44:47.769Z,6.60
2018-08-24T14:51:24.963Z,5.80
2018-08-24T14:52:24.943Z,5.70
2018-08-24T14:54:07.073Z,6.20
2018-08-24T14:55:07.047Z,4.20
2018-08-24T14:56:07.024Z,4.50
2018-08-24T14:57:06.999Z,5.30
2018-08-24T14:58:06.977Z,6.60
2018-08-24T14:59:06.954Z,5.10
2018-08-24T15:00:06.931Z,4.90
2018-08-24T15:01:06.710Z,6.40
2018-08-24T15:02:10.523Z,4.70
2018-08-24T15:03:06.871Z,9.30
2018-08-24T15:04:06.640Z,6.20
2018-08-24T15:05:07.628Z,7.60
2018-08-24T15:06:06.797Z,6.20
2018-08-24T15:07:06.776Z,8.60
2018-08-24T15:08:06.804Z,8.30
2018-08-24T15:09:06.730Z,6.20
2018-08-24T15:10:06.720Z,9.30
2018-08-24T15:11:06.691Z,11.20
2018-08-24T15:12:06.473Z,10.70
2018-08-24T15:13:06.646Z,5.40
2018-08-24T15:14:06.628Z,7.70
2018-08-24T15:15:06.602Z,6.90
2018-08-24T15:16:06.381Z,9.10
2018-08-24T15:17:09.192Z,7.40
2018-08-24T15:18:48.692Z,9.30
2018-08-24T15:19:48.468Z,7.90
2018-08-24T15:20:48.447Z,8.10
2018-08-24T16:07:28.620Z,8.90
2018-08-24T16:13:23.657Z,6.70
2018-08-24T16:15:08.762Z,10.20
2018-08-24T16:16:05.734Z,11.40
2018-08-24T16:17:06.500Z,10.20
2018-08-24T16:18:05.667Z,7.90
2018-08-24T16:19:05.646Z,11.30
2018-08-24T16:20:05.625Z,7.60
2018-08-24T16:21:08.220Z,10.20
2018-08-24T16:22:05.600Z,8.30
2018-08-24T16:23:05.353Z,7.90
2018-08-24T16:24:05.331Z,10.20
2018-08-24T16:25:05.518Z,8.00
2018-08-24T16:26:05.892Z,11.70
2018-08-24T16:27:05.463Z,9.30
2018-08-24T16:28:05.236Z,7.50
2018-08-24T16:29:05.415Z,10.90
2018-08-24T16:30:05.400Z,12.70
2018-08-24T16:31:05.379Z,9.00
2018-08-24T16:32:05.186Z,9.30
2018-08-24T16:33:05.120Z,9.70
2018-08-24T16:34:05.123Z,9.80
2018-08-24T16:35:05.076Z,7.50
2018-08-24T16:36:05.054Z,10.50
2018-08-24T16:37:05.030Z,8.90
2018-08-24T16:38:05.210Z,9.80
2018-08-24T16:39:05.185Z,22.00
2018-08-24T16:40:04.960Z,6.40
2018-08-24T16:41:04.936Z,6.00
2018-08-24T16:42:04.917Z,8.20
2018-08-24T16:43:04.892Z,7.10
2018-08-24T16:44:04.867Z,6.70
2018-08-24T16:45:04.845Z,6.80
2018-08-24T16:46:04.822Z,8.60
2018-08-24T16:47:04.807Z,4.70
2018-08-24T16:48:04.781Z,7.10
2018-08-24T16:49:04.752Z,7.20
2018-08-24T16:50:04.929Z,6.90
2018-08-24T16:51:04.708Z,6.10
2018-08-24T16:52:04.682Z,5.60
2018-08-24T16:53:04.658Z,7.90
2018-08-24T16:54:04.637Z,8.80
2018-08-24T16:55:04.614Z,7.20
2018-08-24T16:56:04.590Z,6.20
2018-08-24T16:57:04.770Z,6.10
2018-08-24T16:58:04.810Z,7.70
2018-08-24T16:59:04.525Z,7.20
2018-08-24T17:00:04.495Z,6.60
2018-08-24T17:01:04.472Z,6.20
2018-08-24T17:02:04.449Z,5.90
2018-08-24T17:03:04.426Z,9.30
2018-08-24T17:04:04.410Z,6.20
2018-08-24T17:05:04.379Z,9.40
2018-08-24T17:06:04.359Z,6.00
2018-08-24T17:07:04.537Z,7.80
2018-08-24T17:08:04.310Z,7.10
2018-08-24T17:09:04.288Z,5.40
2018-08-24T17:10:04.272Z,7.10
2018-08-24T17:11:04.240Z,6.30
2018-08-24T17:12:04.216Z,6.90
2018-08-24T17:13:04.201Z,10.50
2018-08-24T17:14:04.170Z,7.90
2018-08-24T17:15:04.147Z,6.30
2018-08-24T17:16:04.127Z,7.70
2018-08-24T17:17:04.099Z,4.70
2018-08-24T17:18:04.073Z,6.10
2018-08-24T17:19:04.050Z,7.10
2018-08-24T17:20:04.026Z,7.80
2018-08-24T17:21:04.002Z,6.70
2018-08-24T17:22:03.981Z,6.70
2018-08-24T17:23:04.164Z,7.60
2018-08-24T17:24:03.932Z,7.70
2018-08-24T17:25:03.909Z,5.80
2018-08-24T17:26:03.883Z,10.10
2018-08-24T17:27:03.859Z,6.30
2018-08-24T17:28:03.834Z,6.20
2018-08-24T17:29:03.811Z,6.20
2018-08-24T17:30:03.791Z,7.10
2018-08-24T17:31:03.765Z,10.50
2018-08-24T17:32:03.740Z,6.20
2018-08-24T17:33:03.716Z,7.30
2018-08-24T17:34:03.692Z,6.50
2018-08-24T17:35:03.673Z,7.70
2018-08-24T17:36:03.645Z,7.20
2018-08-24T17:37:03.620Z,6.40
2018-08-24T17:38:03.595Z,5.40
2018-08-24T17:39:03.570Z,5.30
2018-08-24T17:41:28.051Z,7.20
2018-08-24T17:42:31.659Z,7.80
2018-08-24T17:43:28.001Z,5.20
2018-08-24T17:44:27.983Z,5.80
2018-08-24T17:45:27.755Z,6.00
2018-08-24T17:46:27.723Z,7.80
2018-08-24T17:47:27.703Z,7.00
2018-08-24T17:48:27.678Z,10.00
2018-08-24T17:49:27.661Z,4.70
2018-08-24T17:50:27.631Z,5.80
2018-08-24T17:51:27.605Z,5.20
2018-08-24T17:52:27.582Z,4.80
2018-08-24T17:53:27.553Z,8.30
2018-08-24T17:54:27.598Z,5.90
2018-08-24T17:56:52.009Z,4.90
2018-08-24T17:58:34.135Z,7.10
2018-08-24T18:01:40.561Z,5.80
2018-08-24T18:02:40.536Z,5.10
2018-08-24T18:03:40.511Z,6.40
2018-08-24T18:04:40.485Z,7.10
2018-08-24T18:05:40.262Z,9.80
2018-08-24T18:06:40.434Z,6.20
2018-08-24T18:07:40.208Z,8.10
2018-08-24T18:08:40.184Z,10.60
2018-08-24T18:09:40.160Z,5.90
2018-08-24T18:10:40.134Z,6.70
2018-08-24T18:11:40.311Z,8.40
2018-08-24T18:12:40.082Z,6.70
2018-08-24T18:13:40.060Z,6.90
2018-08-24T18:14:40.282Z,7.10
2018-08-24T18:15:40.210Z,6.20
2018-08-24T18:16:40.185Z,12.80
2018-08-24T18:17:40.160Z,5.50
2018-08-24T18:18:40.134Z,6.90
2018-08-24T18:19:39.910Z,7.70
2018-08-24T18:20:39.888Z,6.50
2018-08-24T18:21:40.062Z,7.40
2018-08-24T18:22:40.037Z,7.10
2018-08-24T18:23:40.011Z,9.60
2018-08-24T18:24:40.663Z,6.80
2018-08-24T18:25:39.995Z,7.00
2018-08-24T18:26:39.935Z,8.30
2018-08-24T18:27:39.707Z,6.90
2018-08-24T18:28:39.684Z,7.60
2018-08-24T18:29:39.663Z,11.10
2018-08-24T18:30:39.633Z,8.60
2018-08-24T18:31:39.608Z,8.60
2018-08-24T18:32:39.940Z,8.00
2018-08-24T18:33:39.760Z,9.90
2018-08-24T18:34:39.735Z,7.30
2018-08-24T18:35:39.708Z,9.10
2018-08-24T18:36:39.530Z,9.80
2018-08-24T18:37:39.455Z,6.60
2018-08-24T18:38:39.432Z,9.50
2018-08-24T18:39:39.404Z,5.00
2018-08-24T18:40:40.595Z,7.60
2018-08-24T18:41:39.357Z,6.60
2018-08-24T18:42:39.396Z,8.60
2018-08-24T18:43:39.305Z,7.70
2018-08-24T18:45:21.632Z,7.00
2018-08-24T18:46:21.405Z,6.90
2018-08-24T18:47:21.380Z,8.60
2018-08-24T18:48:21.356Z,7.90
2018-08-24T18:49:21.330Z,4.30
2018-08-24T18:50:21.302Z,5.70
2018-08-24T18:51:21.278Z,7.60
2018-08-24T18:52:21.254Z,6.60
2018-08-24T18:53:21.229Z,6.30
2018-08-24T18:54:21.405Z,9.30
2018-08-24T18:55:21.380Z,6.00
2018-08-24T18:56:21.198Z,5.80
2018-08-24T18:57:21.126Z,9.60
2018-08-24T18:58:21.109Z,8.70
2018-08-24T18:59:21.075Z,7.40
2018-08-24T19:00:21.050Z,8.30
2018-08-24T19:01:21.024Z,13.60
2018-08-24T19:02:21.000Z,6.50
2018-08-24T19:03:20.973Z,7.10
2018-08-24T19:04:21.153Z,7.00
2018-08-24T19:05:20.938Z,7.60
2018-08-24T19:06:20.899Z,5.40
2018-08-24T19:07:20.925Z,7.50
2018-08-24T19:08:20.846Z,6.70
2018-08-24T19:09:20.822Z,10.60
2018-08-24T19:10:20.795Z,5.50
2018-08-24T19:11:20.773Z,6.00
2018-08-24T19:12:20.950Z,5.70
2018-08-24T19:13:20.722Z,4.80
2018-08-24T19:14:20.697Z,3.80
2018-08-24T19:15:20.671Z,5.30
2018-08-24T19:16:20.652Z,4.50
2018-08-24T19:17:20.633Z,7.30
2018-08-24T19:18:20.598Z,6.80
2018-08-24T19:19:20.568Z,6.00
2018-08-24T19:20:20.542Z,6.50
2018-08-24T19:21:20.524Z,5.00
2018-08-24T19:22:20.491Z,6.80
2018-08-24T19:23:20.469Z,6.10
2018-08-24T19:24:20.481Z,7.90
2018-08-24T19:25:20.418Z,8.60
2018-08-24T19:26:20.395Z,6.40
2018-08-24T19:27:20.569Z,6.00
2018-08-24T19:28:20.340Z,4.90
2018-08-24T19:29:20.320Z,5.90
2018-08-24T19:30:20.289Z,5.60
2018-08-24T19:31:20.264Z,6.60
2018-08-24T19:32:20.238Z,5.80
2018-08-24T19:33:20.213Z,8.00
2018-08-24T19:34:20.196Z,6.10
2018-08-24T19:35:20.162Z,7.20
2018-08-24T19:36:20.139Z,8.40
2018-08-24T19:37:20.149Z,10.50
2018-08-24T19:38:20.088Z,7.00
2018-08-24T19:39:20.265Z,5.30
2018-08-24T19:40:20.241Z,5.80
2018-08-24T19:41:20.010Z,6.10
2018-08-24T19:42:20.185Z,5.50
2018-08-24T19:43:20.160Z,14.10
2018-08-24T19:44:20.136Z,6.50
2018-08-24T19:45:20.111Z,4.90
2018-08-24T19:46:20.084Z,8.70
2018-08-24T19:47:20.058Z,10.90
2018-08-24T19:48:20.090Z,6.90
2018-08-24T19:49:20.048Z,8.40
2018-08-24T19:50:19.777Z,8.20
2018-08-24T19:51:19.750Z,6.70
2018-08-24T19:52:19.740Z,6.20
2018-08-24T19:53:19.700Z,9.50
2018-08-24T19:54:19.672Z,8.00
2018-08-24T19:55:19.646Z,8.20
2018-08-24T19:56:19.617Z,11.70
2018-08-24T19:57:19.592Z,6.50
2018-08-24T19:58:19.564Z,11.10
2018-08-24T19:59:19.539Z,5.90
2018-08-24T20:00:19.514Z,6.40
2018-08-24T20:01:19.490Z,10.40
2018-08-24T20:02:19.464Z,7.40
2018-08-24T20:03:19.486Z,8.60
2018-08-24T20:04:19.413Z,5.70
2018-08-24T20:05:19.384Z,8.00
2018-08-24T20:06:19.361Z,6.90
2018-08-24T20:07:19.342Z,6.10
2018-08-24T20:08:19.307Z,7.50
2018-08-24T20:09:19.280Z,6.90
2018-08-24T20:10:19.254Z,5.70
2018-08-24T20:11:19.223Z,8.40
2018-08-24T20:12:19.200Z,5.30
2018-08-24T20:13:19.174Z,8.50
2018-08-24T20:14:19.147Z,5.70
2018-08-24T20:15:19.128Z,5.30
2018-08-24T20:16:19.092Z,11.10
2018-08-24T20:17:19.074Z,5.60
2018-08-24T20:18:19.040Z,9.50
2018-08-24T20:19:19.013Z,7.40
2018-08-24T20:20:18.988Z,6.60
2018-08-24T20:21:18.961Z,5.60
2018-08-24T20:22:18.935Z,7.80
2018-08-24T20:23:18.909Z,7.50
2018-08-24T20:24:19.065Z,4.50
2018-08-24T20:25:18.859Z,8.90
2018-08-24T20:26:18.832Z,8.10
2018-08-24T20:27:19.008Z,9.20
2018-08-24T20:28:18.980Z,9.90
2018-08-24T20:29:18.752Z,7.10
2018-08-24T20:30:18.726Z,8.80
2018-08-24T20:31:18.702Z,4.70
2018-08-24T20:32:18.676Z,6.90
2018-08-24T20:33:18.653Z,6.70
2018-08-24T20:34:18.624Z,6.00
2018-08-24T20:35:18.600Z,7.50
2018-08-24T20:36:18.573Z,8.20
2018-08-24T20:37:18.555Z,11.70
2018-08-24T20:38:18.519Z,5.10
2018-08-24T20:39:18.494Z,10.10
2018-08-24T20:40:18.469Z,8.90
2018-08-24T20:41:18.442Z,7.30
2018-08-24T20:42:18.412Z,8.90
2018-08-24T20:43:19.803Z,5.10
2018-08-24T20:44:18.565Z,7.60
2018-08-24T20:45:21.970Z,8.60
2018-08-24T20:46:18.512Z,8.90
2018-08-24T20:47:18.353Z,7.40
2018-08-24T20:48:18.256Z,8.00
2018-08-24T20:49:18.229Z,7.80
2018-08-24T20:50:18.206Z,5.40
2018-08-24T20:51:18.177Z,10.10
2018-08-24T20:52:18.154Z,7.50
2018-08-24T20:53:18.124Z,9.30
2018-08-24T20:54:18.347Z,10.00
2018-08-24T20:55:18.151Z,9.50
2018-08-24T20:56:18.047Z,8.30
2018-08-24T20:57:18.024Z,9.20
2018-08-24T20:58:17.994Z,10.60
2018-08-24T20:59:17.967Z,8.80
2018-08-24T21:00:17.940Z,12.10
2018-08-24T21:01:17.913Z,9.60
2018-08-24T21:02:17.889Z,11.50
2018-08-24T21:03:17.874Z,7.00
2018-08-24T21:04:17.940Z,7.50
2018-08-24T21:05:17.815Z,9.90
2018-08-24T21:06:17.937Z,11.70
2018-08-24T21:07:17.758Z,5.50
2018-08-24T21:08:17.734Z,10.60
2018-08-24T21:09:17.708Z,7.00
2018-08-24T21:10:17.681Z,7.70
2018-08-24T21:11:17.658Z,7.90
2018-08-24T21:12:17.625Z,8.30
2018-08-24T21:13:17.599Z,9.00
2018-08-24T21:14:17.580Z,6.70
2018-08-24T21:15:17.549Z,6.00
2018-08-24T21:16:17.522Z,6.40
2018-08-24T21:17:17.500Z,6.00
2018-08-24T21:18:17.471Z,8.50
2018-08-24T21:19:17.444Z,8.70
2018-08-24T21:20:17.425Z,6.70
2018-08-24T21:21:17.393Z,11.00
2018-08-24T21:22:17.363Z,7.70
2018-08-24T21:23:17.339Z,10.60
2018-08-24T21:24:17.313Z,11.40
2018-08-24T21:25:17.320Z,11.40
2018-08-24T21:26:17.259Z,11.60
2018-08-24T21:27:17.241Z,7.50
2018-08-24T21:28:17.209Z,11.40
2018-08-24T21:29:17.331Z,10.70
2018-08-24T21:30:17.313Z,12.40
2018-08-24T21:31:17.131Z,9.70
2018-08-24T21:32:17.103Z,10.80
2018-08-24T21:33:17.077Z,8.00
2018-08-24T21:34:17.050Z,9.20
2018-08-24T21:35:17.024Z,10.00
2018-08-24T21:36:17.004Z,9.30
2018-08-24T21:37:16.975Z,6.20
2018-08-24T21:38:16.948Z,8.90
2018-08-24T21:39:16.925Z,7.20
2018-08-24T21:40:16.895Z,7.10
2018-08-24T21:41:16.912Z,10.00
2018-08-24T21:42:16.844Z,11.30
2018-08-24T21:43:16.818Z,7.70
2018-08-24T21:44:16.789Z,8.50
2018-08-24T21:45:16.765Z,7.80
2018-08-24T21:46:16.839Z,11.30
2018-08-24T21:47:16.711Z,9.10
2018-08-24T21:48:16.687Z,9.80
2018-08-24T21:49:16.660Z,8.90
2018-08-24T21:50:16.634Z,8.20
2018-08-24T21:51:16.808Z,5.90
2018-08-24T21:52:16.784Z,7.00
2018-08-24T21:53:16.755Z,5.70
2018-08-24T21:54:16.525Z,7.00
2018-08-24T21:55:16.498Z,7.10
2018-08-24T21:56:16.475Z,12.00
2018-08-24T21:57:16.447Z,5.80
2018-08-24T21:58:16.418Z,6.10
2018-08-24T21:59:16.599Z,13.00
2018-08-24T22:00:16.368Z,5.90
2018-08-24T22:01:16.338Z,9.50
2018-08-24T22:02:16.313Z,7.10
2018-08-24T22:03:16.283Z,5.60
2018-08-24T22:04:16.462Z,7.70
2018-08-24T22:05:16.434Z,5.60
2018-08-24T22:06:16.204Z,3.80
2018-08-24T22:07:16.179Z,5.60
2018-08-24T22:08:16.150Z,7.20
2018-08-24T22:09:16.123Z,5.90
2018-08-24T22:10:16.096Z,6.80
2018-08-24T22:11:16.070Z,7.90
2018-08-24T22:12:16.046Z,7.40
2018-08-24T22:13:16.020Z,5.00
2018-08-24T22:14:15.988Z,8.20
2018-08-24T22:15:15.962Z,5.60
2018-08-24T22:16:15.937Z,4.80
2018-08-24T22:17:15.911Z,7.10
2018-08-24T22:18:15.885Z,5.40
2018-08-24T22:19:15.862Z,6.10
2018-08-24T22:20:15.831Z,7.20
2018-08-24T22:21:15.802Z,6.10
2018-08-24T22:22:15.774Z,7.70
2018-08-24T22:23:15.747Z,7.50
2018-08-24T22:24:15.723Z,9.80
2018-08-24T22:25:15.707Z,10.50
2018-08-24T22:26:15.679Z,8.70
2018-08-24T22:27:15.646Z,8.70
2018-08-24T22:28:15.616Z,5.30
2018-08-24T22:29:15.591Z,6.70
2018-08-24T22:30:15.562Z,7.50
2018-08-24T22:31:15.540Z,8.50
2018-08-24T22:32:15.511Z,7.00
2018-08-24T22:33:15.480Z,6.10
2018-08-24T22:34:15.457Z,5.50
2018-08-24T22:35:15.433Z,7.50
2018-08-24T22:36:15.401Z,13.40
2018-08-24T22:37:15.380Z,6.60
2018-08-24T22:38:15.347Z,7.00
2018-08-24T22:39:15.320Z,8.00
2018-08-24T22:40:15.293Z,7.10
2018-08-24T22:41:15.265Z,7.00
2018-08-24T22:42:15.238Z,10.80
2018-08-24T22:43:15.211Z,7.70
2018-08-24T22:44:15.185Z,8.20
2018-08-24T22:45:15.158Z,6.30
2018-08-24T22:46:15.132Z,6.40
2018-08-24T22:47:15.105Z,7.10
2018-08-24T22:48:15.079Z,5.70
2018-08-24T22:49:15.052Z,9.90
2018-08-24T22:50:15.029Z,5.00
2018-08-24T22:51:14.999Z,5.50
2018-08-24T22:52:14.969Z,9.80
2018-08-24T22:53:14.943Z,11.10
2018-08-24T22:54:14.916Z,11.50
2018-08-24T22:55:14.890Z,7.10
2018-08-24T22:56:14.864Z,8.10
2018-08-24T22:57:14.838Z,8.40
2018-08-24T22:58:14.811Z,6.10
2018-08-24T22:59:14.783Z,12.40
2018-08-24T23:00:14.758Z,9.10
2018-08-24T23:01:14.733Z,7.60
2018-08-24T23:02:14.704Z,8.50
2018-08-24T23:03:14.677Z,10.70
2018-08-24T23:04:14.647Z,6.00
2018-08-24T23:05:14.623Z,6.40
2018-08-24T23:06:14.598Z,11.80
2018-08-24T23:07:14.568Z,6.00
2018-08-24T23:08:14.544Z,8.40
2018-08-24T23:09:14.517Z,7.90
2018-08-24T23:10:14.493Z,9.00
2018-08-24T23:11:14.462Z,5.20
2018-08-24T23:12:14.435Z,10.30
2018-08-24T23:13:14.413Z,9.40
2018-08-24T23:14:14.380Z,5.20
2018-08-24T23:15:14.354Z,11.20
2018-08-24T23:16:14.327Z,7.60
2018-08-24T23:17:14.299Z,8.50
2018-08-24T23:18:14.273Z,5.40
2018-08-24T23:19:14.247Z,6.20
2018-08-24T23:20:14.221Z,7.90
2018-08-24T23:21:14.196Z,5.00
2018-08-24T23:22:14.169Z,5.10
2018-08-24T23:23:14.187Z,5.70
2018-08-24T23:24:14.118Z,8.40
2018-08-24T23:25:14.087Z,4.90
2018-08-24T23:26:14.062Z,6.50
2018-08-24T23:27:14.033Z,7.10
2018-08-24T23:28:14.009Z,6.30
2018-08-24T23:29:13.982Z,5.50
2018-08-24T23:30:13.954Z,8.00
2018-08-24T23:31:13.928Z,9.00
2018-08-24T23:32:13.904Z,6.40
2018-08-24T23:33:13.877Z,6.40
2018-08-24T23:34:13.912Z,6.20
2018-08-24T23:35:13.821Z,6.60
2018-08-24T23:36:13.793Z,5.40
2018-08-24T23:37:13.767Z,8.70
2018-08-24T23:38:13.741Z,5.20
2018-08-24T23:39:13.713Z,6.80
2018-08-24T23:40:13.688Z,8.70
2018-08-24T23:41:13.661Z,8.70
2018-08-24T23:42:13.634Z,6.40
2018-08-24T23:43:13.609Z,4.50
2018-08-24T23:44:13.583Z,5.60
2018-08-24T23:45:13.554Z,7.50
2018-08-24T23:46:13.526Z,7.60
2018-08-24T23:47:13.507Z,7.50
2018-08-24T23:48:13.475Z,10.50
2018-08-24T23:49:13.476Z,7.90
2018-08-24T23:50:13.419Z,8.50
2018-08-24T23:51:13.396Z,10.40
2018-08-24T23:52:13.368Z,11.50
2018-08-24T23:53:13.342Z,7.00
2018-08-24T23:54:13.316Z,11.60
2018-08-24T23:55:13.288Z,8.60
2018-08-24T23:56:13.259Z,7.80
2018-08-24T23:57:13.232Z,10.40
2018-08-24T23:58:13.204Z,11.50
2018-08-24T23:59:13.179Z,13.30
